sensor_id;sensor_type;location;lat;lon;timestamp;pressure;altitude;pressure_sealevel;temperature;humidity
34241;BME280;20503;50.200;19.508;2023-02-12T00:01:08;102870.41;;;3.20;100.00
34241;BME280;20503;50.200;19.508;2023-02-12T00:06:11;102867.93;;;3.17;100.00
34241;BME280;20503;50.200;19.508;2023-02-12T00:11:21;102871.61;;;3.16;100.00
34241;BME280;20503;50.200;19.508;2023-02-12T00:16:27;102876.58;;;3.22;100.00
34241;BME280;20503;50.200;19.508;2023-02-12T00:21:33;102867.80;;;3.19;100.00
34241;BME280;20503;50.200;19.508;2023-02-12T00:26:41;102867.70;;;3.20;100.00
34241;BME280;20503;50.200;19.508;2023-02-12T00:31:49;102874.94;;;3.20;100.00
34241;BME280;20503;50.200;19.508;2023-02-12T00:36:56;102875.72;;;3.22;100.00
34241;BME280;20503;50.200;19.508;2023-02-12T00:42:05;102875.48;;;3.25;100.00
34241;BME280;20503;50.200;19.508;2023-02-12T00:47:12;102884.78;;;3.21;100.00
34241;BME280;20503;50.200;19.508;2023-02-12T00:52:20;102887.63;;;3.19;100.00
34241;BME280;20503;50.200;19.508;2023-02-12T00:57:28;102889.58;;;3.17;100.00
34241;BME280;20503;50.200;19.508;2023-02-12T01:02:36;102894.09;;;3.17;100.00
34241;BME280;20503;50.200;19.508;2023-02-12T01:07:43;102896.05;;;3.15;100.00
34241;BME280;20503;50.200;19.508;2023-02-12T01:12:52;102910.24;;;3.18;100.00
34241;BME280;20503;50.200;19.508;2023-02-12T01:17:59;102910.77;;;3.23;100.00
34241;BME280;20503;50.200;19.508;2023-02-12T01:23:07;102901.99;;;3.20;100.00
34241;BME280;20503;50.200;19.508;2023-02-12T01:28:15;102903.20;;;3.16;100.00
34241;BME280;20503;50.200;19.508;2023-02-12T01:33:24;102913.35;;;3.12;100.00
34241;BME280;20503;50.200;19.508;2023-02-12T01:38:31;102912.41;;;3.13;100.00
34241;BME280;20503;50.200;19.508;2023-02-12T01:43:39;102908.83;;;3.13;100.00
34241;BME280;20503;50.200;19.508;2023-02-12T01:48:46;102928.52;;;3.15;100.00
34241;BME280;20503;50.200;19.508;2023-02-12T01:53:55;102930.38;;;3.14;100.00
34241;BME280;20503;50.200;19.508;2023-02-12T01:59:01;102943.45;;;3.20;100.00
34241;BME280;20503;50.200;19.508;2023-02-12T02:04:14;102937.52;;;3.15;100.00
34241;BME280;20503;50.200;19.508;2023-02-12T02:09:18;102954.73;;;3.14;100.00
34241;BME280;20503;50.200;19.508;2023-02-12T02:14:25;102949.09;;;3.17;100.00
34241;BME280;20503;50.200;19.508;2023-02-12T02:25:08;102962.63;;;3.17;100.00
34241;BME280;20503;50.200;19.508;2023-02-12T02:35:27;102969.53;;;3.21;100.00
34241;BME280;20503;50.200;19.508;2023-02-12T02:45:47;102986.30;;;3.26;100.00
34241;BME280;20503;50.200;19.508;2023-02-12T02:50:56;102994.86;;;3.20;100.00
34241;BME280;20503;50.200;19.508;2023-02-12T02:56:01;103001.34;;;3.18;100.00
34241;BME280;20503;50.200;19.508;2023-02-12T03:01:31;103005.79;;;3.19;100.00
34241;BME280;20503;50.200;19.508;2023-02-12T03:06:31;103016.82;;;3.16;100.00
34241;BME280;20503;50.200;19.508;2023-02-12T03:11:33;103019.75;;;3.13;100.00
34241;BME280;20503;50.200;19.508;2023-02-12T03:16:41;103028.93;;;3.10;100.00
34241;BME280;20503;50.200;19.508;2023-02-12T03:21:51;103033.27;;;3.13;100.00
34241;BME280;20503;50.200;19.508;2023-02-12T03:37:29;103074.59;;;3.02;100.00
34241;BME280;20503;50.200;19.508;2023-02-12T03:48:10;103100.88;;;3.00;100.00
34241;BME280;20503;50.200;19.508;2023-02-12T03:52:54;103103.80;;;2.97;100.00
34241;BME280;20503;50.200;19.508;2023-02-12T03:57:59;103107.25;;;2.99;100.00
34241;BME280;20503;50.200;19.508;2023-02-12T04:03:02;103117.20;;;2.99;100.00
34241;BME280;20503;50.200;19.508;2023-02-12T04:08:07;103134.40;;;2.98;100.00
34241;BME280;20503;50.200;19.508;2023-02-12T04:13:18;103129.62;;;2.89;100.00
34241;BME280;20503;50.200;19.508;2023-02-12T04:18:30;103129.23;;;2.81;100.00
34241;BME280;20503;50.200;19.508;2023-02-12T04:39:19;103159.57;;;2.72;100.00
34241;BME280;20503;50.200;19.508;2023-02-12T04:44:24;103161.41;;;2.71;100.00
34241;BME280;20503;50.200;19.508;2023-02-12T04:49:26;103162.18;;;2.73;100.00
34241;BME280;20503;50.200;19.508;2023-02-12T04:54:28;103167.51;;;2.75;100.00
34241;BME280;20503;50.200;19.508;2023-02-12T04:59:29;103185.55;;;2.74;100.00
34241;BME280;20503;50.200;19.508;2023-02-12T05:04:30;103199.27;;;2.71;100.00
34241;BME280;20503;50.200;19.508;2023-02-12T05:09:32;103209.51;;;2.80;100.00
34241;BME280;20503;50.200;19.508;2023-02-12T05:14:33;103217.79;;;2.77;100.00
34241;BME280;20503;50.200;19.508;2023-02-12T05:19:34;103233.57;;;2.57;100.00
34241;BME280;20503;50.200;19.508;2023-02-12T05:24:36;103246.40;;;2.53;100.00
34241;BME280;20503;50.200;19.508;2023-02-12T05:29:37;103250.83;;;2.40;100.00
34241;BME280;20503;50.200;19.508;2023-02-12T05:34:39;103249.77;;;2.29;100.00
34241;BME280;20503;50.200;19.508;2023-02-12T05:39:40;103271.66;;;2.24;100.00
34241;BME280;20503;50.200;19.508;2023-02-12T05:44:44;103294.13;;;2.11;100.00
34241;BME280;20503;50.200;19.508;2023-02-12T05:49:52;103296.18;;;1.92;100.00
34241;BME280;20503;50.200;19.508;2023-02-12T05:54:59;103317.28;;;1.85;100.00
34241;BME280;20503;50.200;19.508;2023-02-12T06:00:09;103336.80;;;1.75;100.00
34241;BME280;20503;50.200;19.508;2023-02-12T06:05:15;103337.70;;;1.60;100.00
34241;BME280;20503;50.200;19.508;2023-02-12T06:10:22;103326.45;;;1.52;100.00
34241;BME280;20503;50.200;19.508;2023-02-12T06:15:30;103352.23;;;1.42;100.00
34241;BME280;20503;50.200;19.508;2023-02-12T06:20:38;103345.27;;;1.23;100.00
34241;BME280;20503;50.200;19.508;2023-02-12T06:25:47;103354.73;;;1.14;100.00
34241;BME280;20503;50.200;19.508;2023-02-12T06:30:54;103356.73;;;1.11;100.00
34241;BME280;20503;50.200;19.508;2023-02-12T06:36:03;103364.04;;;1.09;100.00
34241;BME280;20503;50.200;19.508;2023-02-12T06:41:10;103367.86;;;1.05;100.00
34241;BME280;20503;50.200;19.508;2023-02-12T06:46:18;103377.86;;;1.03;100.00
34241;BME280;20503;50.200;19.508;2023-02-12T06:51:27;103376.26;;;0.99;100.00
34241;BME280;20503;50.200;19.508;2023-02-12T06:56:34;103376.37;;;0.97;100.00
34241;BME280;20503;50.200;19.508;2023-02-12T07:01:42;103397.83;;;0.99;100.00
34241;BME280;20503;50.200;19.508;2023-02-12T07:06:50;103400.05;;;1.08;100.00
34241;BME280;20503;50.200;19.508;2023-02-12T07:11:58;103419.88;;;1.07;100.00
34241;BME280;20503;50.200;19.508;2023-02-12T07:17:05;103429.36;;;1.14;100.00
34241;BME280;20503;50.200;19.508;2023-02-12T07:22:13;103419.21;;;1.19;100.00
34241;BME280;20503;50.200;19.508;2023-02-12T07:27:21;103421.55;;;1.25;100.00
34241;BME280;20503;50.200;19.508;2023-02-12T07:32:33;103430.63;;;1.39;100.00
34241;BME280;20503;50.200;19.508;2023-02-12T07:37:37;103440.15;;;1.92;100.00
34241;BME280;20503;50.200;19.508;2023-02-12T07:42:45;103448.41;;;2.65;100.00
34241;BME280;20503;50.200;19.508;2023-02-12T07:47:52;103460.64;;;3.28;100.00
34241;BME280;20503;50.200;19.508;2023-02-12T07:53:00;103465.78;;;3.61;100.00
34241;BME280;20503;50.200;19.508;2023-02-12T07:58:08;103467.71;;;2.73;100.00
34241;BME280;20503;50.200;19.508;2023-02-12T08:03:15;103472.39;;;2.85;100.00
34241;BME280;20503;50.200;19.508;2023-02-12T08:08:23;103477.17;;;2.66;100.00
34241;BME280;20503;50.200;19.508;2023-02-12T08:13:31;103484.34;;;2.52;100.00
34241;BME280;20503;50.200;19.508;2023-02-12T08:18:39;103494.70;;;2.59;100.00
34241;BME280;20503;50.200;19.508;2023-02-12T08:23:48;103502.67;;;2.47;100.00
34241;BME280;20503;50.200;19.508;2023-02-12T08:28:58;103496.31;;;2.77;100.00
34241;BME280;20503;50.200;19.508;2023-02-12T08:34:04;103506.12;;;3.51;100.00
34241;BME280;20503;50.200;19.508;2023-02-12T08:39:10;103513.06;;;3.41;100.00
34241;BME280;20503;50.200;19.508;2023-02-12T08:44:17;103513.66;;;2.89;100.00
34241;BME280;20503;50.200;19.508;2023-02-12T08:49:28;103528.34;;;2.40;100.00
34241;BME280;20503;50.200;19.508;2023-02-12T08:54:33;103527.55;;;2.22;100.00
34241;BME280;20503;50.200;19.508;2023-02-12T08:59:41;103517.36;;;2.72;100.00
34241;BME280;20503;50.200;19.508;2023-02-12T09:04:49;103531.47;;;3.64;100.00
34241;BME280;20503;50.200;19.508;2023-02-12T09:09:56;103531.98;;;3.27;100.00
34241;BME280;20503;50.200;19.508;2023-02-12T09:15:04;103545.90;;;3.21;100.00
34241;BME280;20503;50.200;19.508;2023-02-12T09:20:12;103557.23;;;3.28;100.00
34241;BME280;20503;50.200;19.508;2023-02-12T09:25:20;103557.41;;;2.95;100.00
34241;BME280;20503;50.200;19.508;2023-02-12T09:30:28;103564.76;;;2.48;100.00
34241;BME280;20503;50.200;19.508;2023-02-12T09:35:37;103565.45;;;2.67;100.00
34241;BME280;20503;50.200;19.508;2023-02-12T09:46:07;103575.46;;;2.50;100.00
34241;BME280;20503;50.200;19.508;2023-02-12T09:51:10;103570.86;;;2.36;100.00
34241;BME280;20503;50.200;19.508;2023-02-12T09:56:13;103569.16;;;2.80;100.00
34241;BME280;20503;50.200;19.508;2023-02-12T10:01:17;103583.88;;;2.90;100.00
34241;BME280;20503;50.200;19.508;2023-02-12T10:06:27;103592.91;;;2.60;100.00
34241;BME280;20503;50.200;19.508;2023-02-12T10:11:40;103599.88;;;2.33;100.00
34241;BME280;20503;50.200;19.508;2023-02-12T10:27:17;103587.05;;;3.69;100.00
34241;BME280;20503;50.200;19.508;2023-02-12T10:32:27;103604.58;;;3.64;100.00
34241;BME280;20503;50.200;19.508;2023-02-12T10:37:39;103604.95;;;4.28;100.00
34241;BME280;20503;50.200;19.508;2023-02-12T10:42:46;103614.27;;;3.82;100.00
34241;BME280;20503;50.200;19.508;2023-02-12T10:47:51;103604.70;;;3.33;100.00
34241;BME280;20503;50.200;19.508;2023-02-12T10:53:00;103597.40;;;3.49;100.00
34241;BME280;20503;50.200;19.508;2023-02-12T10:58:04;103604.05;;;3.44;100.00
34241;BME280;20503;50.200;19.508;2023-02-12T11:03:19;103608.25;;;4.33;100.00
34241;BME280;20503;50.200;19.508;2023-02-12T11:13:52;103616.67;;;3.72;100.00
34241;BME280;20503;50.200;19.508;2023-02-12T11:19:02;103611.46;;;4.25;100.00
34241;BME280;20503;50.200;19.508;2023-02-12T11:29:22;103597.23;;;3.94;100.00
34241;BME280;20503;50.200;19.508;2023-02-12T11:34:27;103598.38;;;3.76;100.00
34241;BME280;20503;50.200;19.508;2023-02-12T11:39:32;103605.13;;;4.79;100.00
34241;BME280;20503;50.200;19.508;2023-02-12T11:44:37;103609.88;;;5.29;100.00
34241;BME280;20503;50.200;19.508;2023-02-12T11:49:47;103609.28;;;5.75;100.00
34241;BME280;20503;50.200;19.508;2023-02-12T11:54:50;103597.57;;;5.99;100.00
34241;BME280;20503;50.200;19.508;2023-02-12T11:59:55;103598.85;;;6.06;100.00
34241;BME280;20503;50.200;19.508;2023-02-12T12:05:05;103593.62;;;6.16;100.00
34241;BME280;20503;50.200;19.508;2023-02-12T12:15:29;103580.99;;;5.65;100.00
34241;BME280;20503;50.200;19.508;2023-02-12T12:20:51;103587.09;;;5.56;100.00
34241;BME280;20503;50.200;19.508;2023-02-12T12:31:34;103587.85;;;5.70;100.00
34241;BME280;20503;50.200;19.508;2023-02-12T12:41:40;103582.72;;;5.29;100.00
34241;BME280;20503;50.200;19.508;2023-02-12T12:47:01;103589.59;;;5.08;100.00
34241;BME280;20503;50.200;19.508;2023-02-12T12:57:32;103595.55;;;5.00;100.00
34241;BME280;20503;50.200;19.508;2023-02-12T13:23:49;103609.78;;;5.04;100.00
34241;BME280;20503;50.200;19.508;2023-02-12T13:28:50;103608.73;;;4.80;100.00
34241;BME280;20503;50.200;19.508;2023-02-12T13:33:57;103606.21;;;5.03;100.00
34241;BME280;20503;50.200;19.508;2023-02-12T13:49:43;103606.02;;;4.80;100.00
34241;BME280;20503;50.200;19.508;2023-02-12T13:59:59;103609.41;;;4.69;100.00
34241;BME280;20503;50.200;19.508;2023-02-12T14:05:03;103602.91;;;4.98;100.00
34241;BME280;20503;50.200;19.508;2023-02-12T14:15:28;103624.54;;;4.73;100.00
34241;BME280;20503;50.200;19.508;2023-02-12T14:20:36;103612.66;;;4.62;100.00
34241;BME280;20503;50.200;19.508;2023-02-12T14:26:07;103617.91;;;4.51;100.00
34241;BME280;20503;50.200;19.508;2023-02-12T14:41:34;103614.02;;;3.57;100.00
34241;BME280;20503;50.200;19.508;2023-02-12T14:46:44;103623.70;;;3.47;100.00
34241;BME280;20503;50.200;19.508;2023-02-12T14:57:05;103633.57;;;3.48;100.00
34241;BME280;20503;50.200;19.508;2023-02-12T15:07:46;103642.60;;;3.33;100.00
34241;BME280;20503;50.200;19.508;2023-02-12T15:12:43;103638.88;;;3.20;100.00
34241;BME280;20503;50.200;19.508;2023-02-12T15:22:41;103655.16;;;2.89;100.00
34241;BME280;20503;50.200;19.508;2023-02-12T15:27:50;103648.96;;;2.72;100.00
34241;BME280;20503;50.200;19.508;2023-02-12T15:32:57;103646.34;;;2.86;100.00
34241;BME280;20503;50.200;19.508;2023-02-12T15:38:04;103657.18;;;2.70;100.00
34241;BME280;20503;50.200;19.508;2023-02-12T15:43:18;103655.59;;;2.35;100.00
34241;BME280;20503;50.200;19.508;2023-02-12T15:48:21;103654.64;;;2.04;100.00
34241;BME280;20503;50.200;19.508;2023-02-12T15:53:27;103665.49;;;1.87;100.00
34241;BME280;20503;50.200;19.508;2023-02-12T16:03:57;103655.45;;;1.57;100.00
34241;BME280;20503;50.200;19.508;2023-02-12T16:09:12;103644.49;;;1.43;100.00
34241;BME280;20503;50.200;19.508;2023-02-12T16:14:24;103656.96;;;1.28;100.00
34241;BME280;20503;50.200;19.508;2023-02-12T16:19:30;103674.48;;;1.20;100.00
34241;BME280;20503;50.200;19.508;2023-02-12T16:24:39;103677.00;;;1.06;100.00
34241;BME280;20503;50.200;19.508;2023-02-12T16:29:47;103676.27;;;1.02;100.00
34241;BME280;20503;50.200;19.508;2023-02-12T16:34:57;103692.38;;;1.04;100.00
34241;BME280;20503;50.200;19.508;2023-02-12T16:50:37;103675.32;;;0.68;100.00
34241;BME280;20503;50.200;19.508;2023-02-12T16:55:42;103677.22;;;0.47;100.00
34241;BME280;20503;50.200;19.508;2023-02-12T17:00:44;103680.84;;;0.28;100.00
34241;BME280;20503;50.200;19.508;2023-02-12T17:05:46;103684.18;;;0.14;100.00
34241;BME280;20503;50.200;19.508;2023-02-12T17:10:49;103693.77;;;0.01;100.00
34241;BME280;20503;50.200;19.508;2023-02-12T17:15:54;103703.92;;;-0.05;100.00
34241;BME280;20503;50.200;19.508;2023-02-12T17:21:02;103702.71;;;-0.18;100.00
34241;BME280;20503;50.200;19.508;2023-02-12T17:26:04;103704.08;;;-0.28;100.00
34241;BME280;20503;50.200;19.508;2023-02-12T17:31:08;103697.01;;;-0.30;100.00
34241;BME280;20503;50.200;19.508;2023-02-12T17:36:13;103687.80;;;-0.25;100.00
34241;BME280;20503;50.200;19.508;2023-02-12T17:41:14;103678.19;;;-0.30;100.00
34241;BME280;20503;50.200;19.508;2023-02-12T17:46:23;103690.08;;;-0.36;100.00
34241;BME280;20503;50.200;19.508;2023-02-12T17:51:29;103693.34;;;-0.48;100.00
34241;BME280;20503;50.200;19.508;2023-02-12T17:56:37;103687.33;;;-0.54;100.00
34241;BME280;20503;50.200;19.508;2023-02-12T18:01:44;103686.44;;;-0.55;100.00
34241;BME280;20503;50.200;19.508;2023-02-12T18:06:55;103680.93;;;-0.52;100.00
34241;BME280;20503;50.200;19.508;2023-02-12T18:12:00;103686.91;;;-0.45;100.00
34241;BME280;20503;50.200;19.508;2023-02-12T18:17:07;103694.92;;;-0.24;100.00
34241;BME280;20503;50.200;19.508;2023-02-12T18:22:16;103695.86;;;-0.25;100.00
34241;BME280;20503;50.200;19.508;2023-02-12T18:27:24;103692.84;;;-0.17;100.00
34241;BME280;20503;50.200;19.508;2023-02-12T18:32:32;103696.05;;;-0.09;100.00
34241;BME280;20503;50.200;19.508;2023-02-12T18:37:40;103682.03;;;-0.16;100.00
34241;BME280;20503;50.200;19.508;2023-02-12T18:42:49;103682.23;;;-0.20;100.00
34241;BME280;20503;50.200;19.508;2023-02-12T18:47:56;103674.20;;;-0.22;100.00
34241;BME280;20503;50.200;19.508;2023-02-12T18:53:04;103666.77;;;-0.17;100.00
34241;BME280;20503;50.200;19.508;2023-02-12T18:58:12;103671.72;;;-0.06;100.00
34241;BME280;20503;50.200;19.508;2023-02-12T19:03:20;103682.13;;;0.01;100.00
34241;BME280;20503;50.200;19.508;2023-02-12T19:08:28;103673.81;;;0.05;100.00
34241;BME280;20503;50.200;19.508;2023-02-12T19:13:37;103671.13;;;0.05;100.00
34241;BME280;20503;50.200;19.508;2023-02-12T19:18:48;103675.35;;;0.11;100.00
34241;BME280;20503;50.200;19.508;2023-02-12T19:23:54;103674.01;;;0.21;100.00
34241;BME280;20503;50.200;19.508;2023-02-12T19:29:02;103679.84;;;0.30;100.00
34241;BME280;20503;50.200;19.508;2023-02-12T19:34:17;103671.98;;;0.44;100.00
34241;BME280;20503;50.200;19.508;2023-02-12T19:39:22;103658.19;;;0.32;100.00
34241;BME280;20503;50.200;19.508;2023-02-12T19:44:25;103672.48;;;0.34;100.00
34241;BME280;20503;50.200;19.508;2023-02-12T19:49:34;103668.38;;;0.07;100.00
34241;BME280;20503;50.200;19.508;2023-02-12T19:54:43;103673.11;;;0.20;100.00
34241;BME280;20503;50.200;19.508;2023-02-12T19:59:50;103667.23;;;0.31;100.00
34241;BME280;20503;50.200;19.508;2023-02-12T20:04:57;103674.56;;;0.09;100.00
34241;BME280;20503;50.200;19.508;2023-02-12T20:10:06;103674.41;;;0.12;100.00
34241;BME280;20503;50.200;19.508;2023-02-12T20:15:13;103678.34;;;0.23;100.00
34241;BME280;20503;50.200;19.508;2023-02-12T20:20:21;103669.41;;;0.23;100.00
34241;BME280;20503;50.200;19.508;2023-02-12T20:25:29;103680.27;;;0.40;100.00
34241;BME280;20503;50.200;19.508;2023-02-12T20:30:40;103677.80;;;0.54;100.00
34241;BME280;20503;50.200;19.508;2023-02-12T20:35:55;103678.66;;;0.73;100.00
34241;BME280;20503;50.200;19.508;2023-02-12T20:41:01;103670.94;;;0.84;100.00
34241;BME280;20503;50.200;19.508;2023-02-12T20:46:10;103674.41;;;0.86;100.00
34241;BME280;20503;50.200;19.508;2023-02-12T20:51:17;103665.80;;;0.96;100.00
34241;BME280;20503;50.200;19.508;2023-02-12T20:56:25;103677.15;;;1.03;100.00
34241;BME280;20503;50.200;19.508;2023-02-12T21:01:30;103680.14;;;0.97;100.00
34241;BME280;20503;50.200;19.508;2023-02-12T21:06:35;103686.98;;;1.04;100.00
34241;BME280;20503;50.200;19.508;2023-02-12T21:11:43;103684.55;;;1.16;100.00
34241;BME280;20503;50.200;19.508;2023-02-12T21:16:53;103668.04;;;1.22;100.00
34241;BME280;20503;50.200;19.508;2023-02-12T21:21:58;103668.45;;;1.32;100.00
34241;BME280;20503;50.200;19.508;2023-02-12T21:27:06;103672.75;;;1.36;100.00
34241;BME280;20503;50.200;19.508;2023-02-12T21:32:15;103666.23;;;1.40;100.00
34241;BME280;20503;50.200;19.508;2023-02-12T21:37:22;103675.69;;;1.48;100.00
34241;BME280;20503;50.200;19.508;2023-02-12T21:42:30;103675.30;;;1.56;100.00
34241;BME280;20503;50.200;19.508;2023-02-12T21:47:38;103683.31;;;1.57;100.00
34241;BME280;20503;50.200;19.508;2023-02-12T21:52:46;103684.68;;;1.49;100.00
34241;BME280;20503;50.200;19.508;2023-02-12T21:57:54;103685.30;;;1.54;100.00
34241;BME280;20503;50.200;19.508;2023-02-12T22:03:03;103693.30;;;1.55;100.00
34241;BME280;20503;50.200;19.508;2023-02-12T22:08:10;103695.94;;;1.57;100.00
34241;BME280;20503;50.200;19.508;2023-02-12T22:13:18;103691.42;;;1.57;100.00
34241;BME280;20503;50.200;19.508;2023-02-12T22:18:26;103693.86;;;1.62;100.00
34241;BME280;20503;50.200;19.508;2023-02-12T22:23:35;103696.27;;;1.68;100.00
34241;BME280;20503;50.200;19.508;2023-02-12T22:28:45;103686.65;;;1.62;100.00
34241;BME280;20503;50.200;19.508;2023-02-12T22:33:56;103681.98;;;1.66;100.00
34241;BME280;20503;50.200;19.508;2023-02-12T22:38:59;103685.46;;;1.68;100.00
34241;BME280;20503;50.200;19.508;2023-02-12T22:44:09;103686.41;;;1.67;100.00
34241;BME280;20503;50.200;19.508;2023-02-12T22:49:15;103693.69;;;1.65;100.00
34241;BME280;20503;50.200;19.508;2023-02-12T22:54:23;103684.98;;;1.60;100.00
34241;BME280;20503;50.200;19.508;2023-02-12T22:59:30;103695.30;;;1.69;100.00
34241;BME280;20503;50.200;19.508;2023-02-12T23:04:38;103692.43;;;1.72;100.00
34241;BME280;20503;50.200;19.508;2023-02-12T23:09:46;103688.61;;;1.76;100.00
34241;BME280;20503;50.200;19.508;2023-02-12T23:14:53;103686.23;;;1.86;100.00
34241;BME280;20503;50.200;19.508;2023-02-12T23:20:02;103676.05;;;1.91;100.00
34241;BME280;20503;50.200;19.508;2023-02-12T23:25:09;103667.15;;;1.89;100.00
34241;BME280;20503;50.200;19.508;2023-02-12T23:30:17;103656.36;;;1.89;100.00
34241;BME280;20503;50.200;19.508;2023-02-12T23:35:25;103650.78;;;1.92;100.00
34241;BME280;20503;50.200;19.508;2023-02-12T23:40:33;103657.92;;;1.93;100.00
34241;BME280;20503;50.200;19.508;2023-02-12T23:45:44;103668.66;;;1.95;100.00
34241;BME280;20503;50.200;19.508;2023-02-12T23:50:49;103671.98;;;2.00;100.00
34241;BME280;20503;50.200;19.508;2023-02-12T23:55:56;103668.08;;;2.05;100.00
